Time,TemperatureF,DewpointF,PressureIn,WindDirection,WindDirectionDegrees,WindSpeedMPH,WindSpeedGustMPH,Humidity,HourlyPrecipIn,Conditions,Clouds,dailyrainin,SoftwareType,DateUTC
2013-09-17 01:12:00,56.0,52.0,29.89,SW,220,1.0,2.0,83,-99.99,,,-99.99,,2013-09-17 08:12:00,
2013-09-17 02:22:00,56.0,52.0,29.88,SE,126,0.0,1.0,84,-99.99,,,-99.99,,2013-09-17 09:22:00,
2013-09-17 02:42:00,55.0,51.0,29.87,South,174,2.0,4.0,87,-99.99,,,-99.99,,2013-09-17 09:42:00,
2013-09-17 03:23:00,55.0,51.0,29.87,SSE,164,3.0,6.0,87,-99.99,,,-99.99,,2013-09-17 10:23:00,
2013-09-17 03:42:00,55.0,51.0,29.87,SSE,148,2.0,3.0,86,-99.99,,,-99.99,,2013-09-17 10:42:00,
2013-09-17 04:11:00,55.0,51.0,29.86,SSE,152,1.0,2.0,87,-99.99,,,-99.99,,2013-09-17 11:11:00,
2013-09-17 04:22:00,55.0,52.0,29.86,WSW,254,4.0,7.0,89,-99.99,,,-99.99,,2013-09-17 11:22:00,
2013-09-17 05:12:00,57.0,52.0,29.86,SSW,193,3.0,4.0,81,-99.99,,,-99.99,,2013-09-17 12:12:00,
2013-09-17 05:21:00,56.0,51.0,29.86,SSW,199,2.0,3.0,84,-99.99,,,-99.99,,2013-09-17 12:21:00,
2013-09-17 05:42:00,56.0,52.0,29.86,SSE,165,3.0,4.0,85,-99.99,,,-99.99,,2013-09-17 12:42:00,
2013-09-17 05:52:00,56.0,52.0,29.86,SW,223,3.0,7.0,85,-99.99,,,-99.99,,2013-09-17 12:52:00,
2013-09-17 06:22:00,58.0,54.0,29.85,WSW,248,5.0,10.0,85,-99.99,,,-99.99,,2013-09-17 13:22:00,
2013-09-17 06:42:00,58.0,53.0,29.84,SW,221,4.0,8.0,84,-99.99,,,-99.99,,2013-09-17 13:42:00,
2013-09-17 07:21:00,57.0,52.0,29.83,SW,220,4.0,8.0,84,-99.99,,,-99.99,,2013-09-17 14:21:00,
2013-09-17 07:42:00,58.0,53.0,29.84,WSW,254,5.0,14.0,85,-99.99,,,-99.99,,2013-09-17 14:42:00,
2013-09-17 08:22:00,56.0,51.0,29.84,South,177,2.0,4.0,84,-99.99,,,-99.99,,2013-09-17 15:22:00,
2013-09-17 09:12:00,58.0,53.0,29.83,South,172,2.0,5.0,83,-99.99,,,-99.99,,2013-09-17 16:12:00,
2013-09-17 09:23:00,58.0,53.0,29.83,SSE,151,2.0,8.0,82,-99.99,,,-99.99,,2013-09-17 16:23:00,
2013-09-17 10:43:00,61.0,53.0,29.83,West,259,8.0,16.0,76,-99.99,,,-99.99,,2013-09-17 17:43:00,
2013-09-17 11:21:00,61.0,52.0,29.83,West,272,12.0,20.0,71,-99.99,,,-99.99,,2013-09-17 18:21:00,
2013-09-17 12:11:00,62.0,51.0,29.83,West,279,12.0,22.0,65,-99.99,,,-99.99,,2013-09-17 19:11:00,
2013-09-17 12:21:00,62.0,50.0,29.83,West,281,11.0,20.0,64,-99.99,,,-99.99,,2013-09-17 19:21:00,
2013-09-17 12:42:00,63.0,50.0,29.83,West,273,12.0,20.0,60,-99.99,,,-99.99,,2013-09-17 19:42:00,
2013-09-17 13:22:00,64.0,50.0,29.84,West,271,12.0,20.0,60,-99.99,,,-99.99,,2013-09-17 20:22:00,
2013-09-17 13:42:00,65.0,49.0,29.83,West,268,13.0,22.0,56,-99.99,,,-99.99,,2013-09-17 20:42:00,
2013-09-17 14:22:00,67.0,48.0,29.83,West,277,12.0,19.0,49,-99.99,,,-99.99,,2013-09-17 21:22:00,
2013-09-17 14:44:00,68.0,46.0,29.82,West,262,12.0,19.0,45,-99.99,,,-99.99,,2013-09-17 21:44:00,
2013-09-17 15:24:00,68.0,46.0,29.82,West,262,13.0,22.0,45,-99.99,,,-99.99,,2013-09-17 22:24:00,
2013-09-17 15:43:00,67.0,45.0,29.82,West,265,13.0,24.0,45,-99.99,,,-99.99,,2013-09-17 22:43:00,
2013-09-17 17:11:00,65.0,46.0,29.85,West,276,11.0,21.0,50,-99.99,,,-99.99,,2013-09-18 00:11:00,
2013-09-17 17:22:00,64.0,47.0,29.85,West,261,15.0,27.0,53,-99.99,,,-99.99,,2013-09-18 00:22:00,
2013-09-17 17:42:00,63.0,47.0,29.86,West,268,13.0,23.0,55,-99.99,,,-99.99,,2013-09-18 00:42:00,
2013-09-17 18:21:00,62.0,47.0,29.87,West,266,10.0,19.0,59,-99.99,,,-99.99,,2013-09-18 01:21:00,
2013-09-17 18:42:00,62.0,48.0,29.87,West,278,8.0,14.0,61,-99.99,,,-99.99,,2013-09-18 01:42:00,
2013-09-17 19:22:00,61.0,48.0,29.87,West,267,9.0,18.0,60,-99.99,,,-99.99,,2013-09-18 02:22:00,
2013-09-17 20:23:00,61.0,48.0,29.90,West,270,6.0,11.0,62,-99.99,,,-99.99,,2013-09-18 03:23:00,
2013-09-17 21:24:00,60.0,49.0,29.91,West,274,4.0,9.0,67,-99.99,,,-99.99,,2013-09-18 04:24:00,
2013-09-17 21:44:00,59.0,49.0,29.92,West,272,9.0,13.0,69,-99.99,,,-99.99,,2013-09-18 04:44:00,
2013-09-17 22:42:00,59.0,50.0,29.93,West,269,7.0,14.0,71,-99.99,,,-99.99,,2013-09-18 05:42:00,
2013-09-17 23:12:00,59.0,49.0,29.93,West,271,9.0,20.0,69,-99.99,,,-99.99,,2013-09-18 06:12:00,
2013-09-17 23:22:00,59.0,49.0,29.93,West,273,11.0,22.0,70,-99.99,,,-99.99,,2013-09-18 06:22:00,
2013-09-17 23:42:00,59.0,50.0,29.94,West,271,11.0,17.0,71,-99.99,,,-99.99,,2013-09-18 06:42:00,